Change the Weather History Date:

Tuesday, June 10, 2014

  Actual Average Record
Temperature  
Mean Temperature 40 °F -  
Max Temperature 44 °F 47 °F 73 °F (2007)
Min Temperature 35 °F 35 °F 28 °F (2008)
Degree Days  
Heating Degree Days 26    
Moisture  
Dew Point 33 °F    
Average Humidity 77    
Maximum Humidity 87    
Minimum Humidity 70    
Precipitation  
Precipitation 0.00 in - - ()
Sea Level Pressure  
Sea Level Pressure 30.06 in    
Wind  
Wind Speed 10 mph (NW)    
Max Wind Speed 14 mph    
Max Gust Speed -    
Visibility 9 miles    
Events      
Averages and records for this station are not official NWS values.
T = Trace of Precipitation, MM = Missing Value Source: NWS Daily Summary

Daily Weather History Graph

Daily Weather History Graph

Search for Another Location

Airport or City:

Trip Planner

Search our weather history database for the weather conditions in past years. The results will help you decide how hot, cold, wet, or windy it might be!

Date:

Astronomy

Jun. 10, 2014 Rise Set
Actual Time 5:39 AM AKDT 12:30 AM AKDT
Civil Twilight 3:53 AM AKDT 2:18 AM AKDT
Nautical Twilight Sun does not rise Sun does not rise
Astronomical Twilight Sun does not rise Sun does not rise
Moon 9:25 PM AKDT (6/10) 4:48 AM AKDT (6/10)
Length of Visible Light 22h 24m
Length of Day
18h 50m
Waxing Gibbous, 93% of the Moon is Illuminated
Jun 10
Waxing Gibbous
Jun 12
Full
Jun 19
Last Quarter
Jun 27
New
Jul 5
First Quarter

Hourly Weather History & Observations

Time (AKDT) Temp. Windchill Dew Point Humidity Pressure Visibility Wind Dir Wind Speed Gust Speed Precip Events Conditions
12:16 AM 35.6 °F 28.6 °F 30.2 °F 81% 29.98 in 10.0 mi NW 9.2 mph - N/A   Overcast
12:36 AM 37.4 °F 29.8 °F 30.2 °F 75% 29.99 in 9.0 mi WNW 11.5 mph - N/A   Overcast
12:56 AM 35.6 °F 27.5 °F 32.0 °F 87% 29.99 in 1.8 mi WNW 11.5 mph - N/A   Overcast
1:16 AM 35.6 °F 28.6 °F 32.0 °F 87% 30.00 in 10.0 mi WNW 9.2 mph - N/A   Overcast
1:36 AM 35.6 °F 27.5 °F 32.0 °F 87% 30.00 in 5.0 mi NW 11.5 mph - N/A   Overcast
1:56 AM 35.6 °F 27.5 °F 32.0 °F 87% 30.00 in 10.0 mi NW 11.5 mph - N/A   Overcast
2:16 AM 37.4 °F 30.3 °F 30.2 °F 75% 30.00 in 10.0 mi NW 10.4 mph - N/A   Overcast
2:36 AM 37.4 °F 29.3 °F 30.2 °F 75% 30.00 in 10.0 mi NW 12.7 mph - N/A   Overcast
2:56 AM 37.4 °F 30.3 °F 30.2 °F 75% 30.00 in 10.0 mi NW 10.4 mph - N/A   Overcast
3:16 AM 37.4 °F 30.3 °F 30.2 °F 75% 30.01 in 10.0 mi WNW 10.4 mph - N/A   Overcast
3:36 AM 35.6 °F 28.0 °F 30.2 °F 81% 30.01 in 10.0 mi NW 10.4 mph - N/A   Overcast
3:56 AM 35.6 °F 28.0 °F 30.2 °F 81% 30.01 in 10.0 mi WNW 10.4 mph - N/A   Overcast
4:16 AM 37.4 °F 30.3 °F 32.0 °F 81% 30.01 in 8.0 mi WNW 10.4 mph - N/A   Overcast
4:36 AM 37.4 °F 29.3 °F 32.0 °F 81% 30.01 in 10.0 mi WNW 12.7 mph - N/A   Overcast
4:56 AM 37.4 °F 29.8 °F 30.2 °F 75% 30.01 in 8.0 mi WNW 11.5 mph - N/A   Overcast
5:16 AM 37.4 °F 28.9 °F 32.0 °F 81% 30.01 in 10.0 mi WNW 13.8 mph - N/A   Overcast
5:56 AM 37.4 °F 29.3 °F 32.0 °F 81% 30.01 in 7.0 mi WNW 12.7 mph - N/A   Overcast
6:16 AM 37.4 °F 29.3 °F 32.0 °F 81% 30.02 in 10.0 mi WNW 12.7 mph - N/A   Overcast
6:36 AM 37.4 °F 29.8 °F 32.0 °F 81% 30.02 in 10.0 mi WNW 11.5 mph - N/A   Overcast
6:56 AM 37.4 °F 29.3 °F 32.0 °F 81% 30.02 in 10.0 mi WNW 12.7 mph - N/A   Overcast
7:16 AM 37.4 °F 29.3 °F 32.0 °F 81% 30.02 in 10.0 mi WNW 12.7 mph - N/A   Overcast
7:36 AM 37.4 °F 30.3 °F 32.0 °F 81% 30.02 in 8.0 mi West 10.4 mph - N/A   Overcast
7:56 AM 37.4 °F 29.3 °F 33.8 °F 87% 30.02 in 5.0 mi West 12.7 mph - N/A   Overcast
8:16 AM 37.4 °F 29.3 °F 33.8 °F 87% 30.03 in 7.0 mi WNW 12.7 mph - N/A   Overcast
8:36 AM 39.2 °F 31.6 °F 33.8 °F 81% 30.03 in 10.0 mi WNW 12.7 mph - N/A   Overcast
9:16 AM 39.2 °F 31.2 °F 33.8 °F 81% 30.04 in 10.0 mi WNW 13.8 mph - N/A   Overcast
9:36 AM 39.2 °F 31.6 °F 32.0 °F 75% 30.04 in 10.0 mi West 12.7 mph - N/A   Overcast
9:56 AM 39.2 °F 31.6 °F 32.0 °F 75% 30.04 in 10.0 mi West 12.7 mph - N/A   Overcast
10:16 AM 39.2 °F 32.5 °F 32.0 °F 75% 30.05 in 10.0 mi WNW 10.4 mph - N/A   Overcast
10:36 AM 39.2 °F 32.5 °F 32.0 °F 75% 30.05 in 10.0 mi WNW 10.4 mph - N/A   Overcast
10:56 AM 39.2 °F 32.0 °F 33.8 °F 81% 30.06 in 7.0 mi WNW 11.5 mph - N/A   Overcast
11:16 AM 39.2 °F 32.0 °F 33.8 °F 81% 30.06 in 9.0 mi NW 11.5 mph - N/A   Overcast
11:36 AM 39.2 °F 32.5 °F 33.8 °F 81% 30.07 in 9.0 mi WNW 10.4 mph - N/A   Overcast
11:56 AM 39.2 °F 32.5 °F 33.8 °F 81% 30.07 in 7.0 mi WNW 10.4 mph - N/A   Overcast
12:16 PM 39.2 °F 33.0 °F 33.8 °F 81% 30.07 in 9.0 mi WNW 9.2 mph - N/A   Overcast
12:36 PM 41.0 °F 35.2 °F 33.8 °F 76% 30.08 in 10.0 mi West 9.2 mph - N/A   Overcast
1:16 PM 41.0 °F 34.3 °F 33.8 °F 76% 30.08 in 10.0 mi NW 11.5 mph - N/A   Overcast
1:36 PM 41.0 °F 35.8 °F 33.8 °F 76% 30.09 in 10.0 mi NW 8.1 mph - N/A   Overcast
1:56 PM 41.0 °F 35.2 °F 33.8 °F 76% 30.09 in 10.0 mi NNW 9.2 mph - N/A   Overcast
2:16 PM 41.0 °F 35.8 °F 33.8 °F 76% 30.09 in 10.0 mi NNW 8.1 mph - N/A   Overcast
2:36 PM 41.0 °F 36.4 °F 33.8 °F 76% 30.10 in 10.0 mi NNW 6.9 mph - N/A   Overcast
2:56 PM 42.8 °F 38.6 °F 33.8 °F 70% 30.10 in 10.0 mi NNW 6.9 mph - N/A   Overcast
3:16 PM 42.8 °F 37.0 °F 33.8 °F 70% 30.10 in 10.0 mi NNW 10.4 mph - N/A   Overcast
3:36 PM 42.8 °F 38.6 °F 35.6 °F 76% 30.10 in 10.0 mi NNW 6.9 mph - N/A   Overcast
3:56 PM 42.8 °F 37.0 °F 35.6 °F 76% 30.10 in 10.0 mi NNW 10.4 mph - N/A   Overcast
4:16 PM 42.8 °F 38.0 °F 35.6 °F 76% 30.11 in 10.0 mi NNW 8.1 mph - N/A   Overcast
4:36 PM 44.6 °F 39.2 °F 35.6 °F 71% 30.10 in 10.0 mi North 10.4 mph - N/A   Overcast
4:56 PM 42.8 °F 36.6 °F 35.6 °F 76% 30.10 in 10.0 mi NNW 11.5 mph - N/A   Overcast
5:16 PM 42.8 °F 36.6 °F 35.6 °F 76% 30.10 in 10.0 mi NNW 11.5 mph - N/A   Overcast
5:36 PM 44.6 °F 38.8 °F 35.6 °F 71% 30.10 in 10.0 mi NNW 11.5 mph - N/A   Mostly Cloudy
5:56 PM 44.6 °F 39.2 °F 35.6 °F 71% 30.10 in 10.0 mi NNW 10.4 mph - N/A   Partly Cloudy
6:16 PM 44.6 °F 38.8 °F 35.6 °F 71% 30.10 in 10.0 mi NNW 11.5 mph - N/A   Scattered Clouds
6:36 PM 42.8 °F 36.6 °F 35.6 °F 76% 30.10 in 10.0 mi NNW 11.5 mph - N/A   Partly Cloudy
6:56 PM 42.8 °F 36.6 °F 35.6 °F 76% 30.10 in 10.0 mi NNW 11.5 mph - N/A   Clear
7:16 PM 42.8 °F 36.6 °F 33.8 °F 70% 30.10 in 10.0 mi NNW 11.5 mph - N/A   Mostly Cloudy
7:36 PM 42.8 °F 37.5 °F 33.8 °F 70% 30.10 in 10.0 mi NNW 9.2 mph - N/A   Mostly Cloudy
7:56 PM 42.8 °F 38.0 °F 33.8 °F 70% 30.11 in 10.0 mi NNW 8.1 mph - N/A   Mostly Cloudy
8:16 PM 41.0 °F 35.8 °F 33.8 °F 76% 30.11 in 10.0 mi North 8.1 mph - N/A   Overcast
8:36 PM 41.0 °F 37.1 °F 33.8 °F 76% 30.11 in 10.0 mi NNW 5.8 mph - N/A   Overcast
8:56 PM 39.2 °F 35.0 °F 32.0 °F 75% 30.11 in 10.0 mi NNW 5.8 mph - N/A   Overcast
9:16 PM 39.2 °F 37.0 °F 32.0 °F 75% 30.12 in 10.0 mi NW 3.5 mph - N/A   Overcast
9:36 PM 39.2 °F 35.9 °F 32.0 °F 75% 30.12 in 10.0 mi NNW 4.6 mph - N/A   Overcast
9:56 PM 39.2 °F - 32.0 °F 75% 30.12 in 10.0 mi Calm Calm - N/A   Overcast
10:16 PM 39.2 °F 35.9 °F 30.2 °F 70% 30.12 in 10.0 mi NNW 4.6 mph - N/A   Overcast
10:36 PM 39.2 °F 37.0 °F 32.0 °F 75% 30.12 in 10.0 mi NNW 3.5 mph - N/A   Overcast
10:56 PM 39.2 °F 37.0 °F 30.2 °F 70% 30.12 in 10.0 mi NW 3.5 mph - N/A   Overcast
11:16 PM 39.2 °F - 30.2 °F 70% 30.12 in 10.0 mi Calm Calm - N/A   Overcast
11:36 PM 39.2 °F - 30.2 °F 70% 30.12 in 10.0 mi Calm Calm - N/A   Overcast
11:56 PM 37.4 °F - 30.2 °F 75% 30.13 in 10.0 mi Calm Calm - N/A   Overcast